Time;durP1;ratioP1;P1;durP2;ratioP2;P2;SDS_P1;SDS_P2;PMS_P1;PMS_P2;Temp;Humidity;BMP_temperature;BMP_pressure;BME280_temperature;BME280_humidity;BME280_pressure;Samples;Min_cycle;Max_cycle;Signal;HPM_P1;HPM_P2
2021/04/05 00:00:00;;;;;;;;;;;;;;;1.67;84.49;95591.56;1027229;28;20479;-67
2021/04/05 00:00:30;;;;;;;;;;;;;;;1.67;84.61;95591.56;1027035;28;19941;-67
2021/04/05 00:01:01;;;;;;;;;;;;;;;1.68;84.84;95593.13;1034683;28;20234;-68
2021/04/05 00:01:31;;;;;;;;;;;;;;;1.62;84.88;95590.41;1030850;28;19918;-67
2021/04/05 00:02:01;;;;;;;;;;;;;;;1.66;84.95;95590.78;1027476;28;19914;-68
2021/04/05 00:02:32;;;;;;;;;;;;;;;1.69;84.84;95589.56;1022482;28;19906;-67
2021/04/05 00:03:02;;;;;;;;;;;;;;;1.64;84.79;95585.81;1027067;28;19946;-67
2021/04/05 00:03:33;;;;;;;;;;;;;;;1.65;84.99;95589.97;1033548;28;20319;-68
2021/04/05 00:04:04;;;;;;;;;;;;;;;1.68;85.08;95582.78;1039056;28;19952;-68
2021/04/05 00:04:34;;;;;;;;;;;;;;;1.64;85.25;95578.06;1039155;28;20263;-66
2021/04/05 00:05:06;;;;;;;;;;;;;;;1.62;85.14;95577.47;1039674;28;19928;-67
2021/04/05 00:05:37;;;;;;;;;;;;;;;1.64;85.05;95578.06;1034837;28;19910;-67
2021/04/05 00:06:08;;;;;;;;;;;;;;;1.60;85.00;95576.88;1039280;28;19911;-66
2021/04/05 00:06:38;;;;;;;;;;;;;;;1.61;85.48;95578.47;1035014;28;19916;-66
2021/04/05 00:07:10;;;;;;;;;;;;;;;1.60;85.25;95576.09;1035427;28;19912;-67
2021/04/05 00:07:41;;;;;;;;;;;;;;;1.59;85.60;95577.09;1032541;28;19916;-66
2021/04/05 00:08:11;;;;;;;;;;;;;;;1.62;85.51;95574.88;1031807;28;19910;-67
2021/04/05 00:08:41;;;;;;;;;;;;;;;1.44;84.97;95548.16;1030270;28;19910;-66
2021/04/05 00:09:13;;;;;;;;;;;;;;;1.61;85.22;95573.31;1031580;28;20013;-66
2021/04/05 00:09:45;;;;;;;;;;;;;;;1.61;84.97;95573.31;1039122;28;19913;-67
2021/04/05 00:10:17;;;;;;;;;;;;;;;1.63;85.26;95573.09;1039900;28;19921;-66
2021/04/05 00:10:51;;;;;;;;;;;;;;;1.66;85.30;95570.06;1039804;28;19951;-68
2021/04/05 00:11:21;;;;;;;;;;;;;;;1.74;84.78;95571.59;1037947;28;19913;-66
2021/04/05 00:11:51;;;;;;;;;;;;;;;1.71;84.46;95572.03;1031157;28;19913;-67
2021/04/05 00:12:22;;;;;;;;;;;;;;;1.72;84.50;95568.44;1027457;28;20362;-66
2021/04/05 00:12:52;;;;;;;;;;;;;;;1.72;84.41;95563.28;1028088;28;19944;-67
2021/04/05 00:13:23;;;;;;;;;;;;;;;1.68;84.41;95572.44;1035177;28;19918;-66
2021/04/05 00:13:54;;;;;;;;;;;;;;;1.64;84.87;95567.72;1035259;28;19913;-67
2021/04/05 00:14:24;;;;;;;;;;;;;;;1.61;84.82;95569.91;1031141;28;20446;-67
2021/04/05 00:14:54;;;;;;;;;;;;;;;1.65;84.93;95573.69;1035147;28;19918;-66
2021/04/05 00:15:25;;;;;;;;;;;;;;;1.68;84.85;95572.44;1031054;28;19913;-67
2021/04/05 00:15:55;;;;;;;;;;;;;;;1.68;84.73;95564.69;1035106;28;19971;-66
2021/04/05 00:16:25;;;;;;;;;;;;;;;1.70;84.70;95570.44;1031069;28;19939;-66
2021/04/05 00:16:56;;;;;;;;;;;;;;;1.68;84.46;95569.84;1025754;28;19918;-66
2021/04/05 00:17:26;;;;;;;;;;;;;;;1.63;84.79;95571.28;1032049;28;20465;-65
2021/04/05 00:17:57;;;;;;;;;;;;;;;1.65;84.49;95571.88;1027543;28;19922;-67
2021/04/05 00:18:27;;;;;;;;;;;;;;;1.67;84.43;95565.69;1035138;28;19917;-66
2021/04/05 00:18:57;;;;;;;;;;;;;;;1.68;84.49;95569.84;1039860;28;20377;-66
2021/04/05 00:19:27;;;;;;;;;;;;;;;1.67;84.68;95565.69;1040916;28;19956;-65
2021/04/05 00:19:58;;;;;;;;;;;;;;;1.64;84.47;95566.91;1040039;28;19913;-67
2021/04/05 00:20:29;;;;;;;;;;;;;;;1.62;84.68;95564.53;1039557;28;19919;-66
2021/04/05 00:21:04;;;;;;;;;;;;;;;1.62;84.60;95559.38;1031723;28;20272;-66
2021/04/05 00:21:34;;;;;;;;;;;;;;;1.67;84.50;95560.53;1032530;28;19936;-65
2021/04/05 00:22:05;;;;;;;;;;;;;;;1.67;84.76;95560.53;1035256;28;20410;-66
2021/04/05 00:22:36;;;;;;;;;;;;;;;1.65;84.56;95564.13;1040807;28;20075;-66
2021/04/05 00:23:06;;;;;;;;;;;;;;;1.64;84.49;95559.13;1039766;28;19913;-65
2021/04/05 00:23:36;;;;;;;;;;;;;;;1.63;84.77;95566.13;1031683;28;19922;-66
2021/04/05 00:24:07;;;;;;;;;;;;;;;1.64;84.56;95562.53;1031829;28;19925;-66
2021/04/05 00:24:38;;;;;;;;;;;;;;;1.62;84.77;95554.19;1027402;28;19914;-67
2021/04/05 00:25:08;;;;;;;;;;;;;;;1.62;84.72;95558.59;1031906;28;19917;-66
2021/04/05 00:25:38;;;;;;;;;;;;;;;1.67;84.54;95556.13;1031887;28;19913;-66
2021/04/05 00:26:09;;;;;;;;;;;;;;;1.62;84.46;95551.59;1035589;28;19933;-66
2021/04/05 00:26:39;;;;;;;;;;;;;;;1.62;85.02;95543.06;1031878;28;19917;-66
2021/04/05 00:27:09;;;;;;;;;;;;;;;1.62;84.94;95554.19;1027470;28;19910;-66
2021/04/05 00:27:40;;;;;;;;;;;;;;;1.65;84.43;95548.59;1031650;28;20387;-65
2021/04/05 00:28:10;;;;;;;;;;;;;;;1.66;84.47;95549.41;1031945;28;20534;-65
2021/04/05 00:28:40;;;;;;;;;;;;;;;1.64;84.71;95547.03;1033970;28;20462;-66
2021/04/05 00:29:12;;;;;;;;;;;;;;;1.64;84.52;95541.84;1035873;28;19971;-67
2021/04/05 00:29:42;;;;;;;;;;;;;;;1.65;84.53;95538.25;1037686;28;20475;-66
2021/04/05 00:30:17;;;;;;;;;;;;;;;1.65;84.68;95545.22;1035657;28;19914;-66
2021/04/05 00:30:48;;;;;;;;;;;;;;;1.65;84.60;95529.72;1031960;28;19918;-66
2021/04/05 00:31:18;;;;;;;;;;;;;;;1.64;85.07;95535.88;1028930;28;19914;-65
2021/04/05 00:31:49;;;;;;;;;;;;;;;1.62;85.27;95537.91;1032412;28;19918;-67
2021/04/05 00:32:19;;;;;;;;;;;;;;;1.62;85.09;95538.69;1031519;28;20397;-67
2021/04/05 00:32:49;;;;;;;;;;;;;;;1.61;85.43;95534.53;1031653;28;19929;-66
2021/04/05 00:33:20;;;;;;;;;;;;;;;1.61;85.43;95539.69;1034903;28;19936;-66
2021/04/05 00:33:50;;;;;;;;;;;;;;;1.61;85.31;95546.63;1035459;28;19914;-66
2021/04/05 00:34:21;;;;;;;;;;;;;;;1.61;85.13;95547.44;1031671;28;20395;-66
2021/04/05 00:34:51;;;;;;;;;;;;;;;1.62;85.18;95549.03;1026821;28;19918;-66
2021/04/05 00:35:22;;;;;;;;;;;;;;;1.63;85.08;95539.47;1019070;28;19992;-66
2021/04/05 00:35:53;;;;;;;;;;;;;;;1.58;85.51;95537.53;1030300;28;20427;-66
2021/04/05 00:36:23;;;;;;;;;;;;;;;1.55;85.38;95545.69;1035060;28;19917;-66
2021/04/05 00:36:53;;;;;;;;;;;;;;;1.53;85.37;95539.94;1031471;28;19918;-65
2021/04/05 00:37:24;;;;;;;;;;;;;;;1.54;85.73;95530.38;1037306;28;19960;-66
2021/04/05 00:37:54;;;;;;;;;;;;;;;1.52;85.65;95540.94;1032016;28;20056;-66
2021/04/05 00:38:24;;;;;;;;;;;;;;;1.53;85.29;95534.75;1038753;28;20390;-66
2021/04/05 00:38:55;;;;;;;;;;;;;;;1.51;85.66;95536.78;1039485;28;19936;-66
2021/04/05 00:39:25;;;;;;;;;;;;;;;1.50;85.54;95527.44;1038801;28;20361;-66
2021/04/05 00:39:55;;;;;;;;;;;;;;;1.51;85.72;95535.97;1035741;28;19944;-66
2021/04/05 00:40:30;;;;;;;;;;;;;;;1.55;85.83;95527.59;1032028;28;19918;-67
2021/04/05 00:41:03;;;;;;;;;;;;;;;1.36;85.47;95494.94;1030940;28;19914;-67
2021/04/05 00:41:33;;;;;;;;;;;;;;;1.60;85.14;95532.13;1028836;28;20313;-67
2021/04/05 00:42:04;;;;;;;;;;;;;;;1.60;84.91;95530.34;1027899;28;19910;-66
2021/04/05 00:42:35;;;;;;;;;;;;;;;1.59;84.85;95528.75;1032019;28;19910;-67
2021/04/05 00:43:06;;;;;;;;;;;;;;;1.58;84.97;95531.56;1035868;28;19924;-66
2021/04/05 00:43:36;;;;;;;;;;;;;;;1.55;85.03;95531.97;1043764;28;19928;-67
2021/04/05 00:44:07;;;;;;;;;;;;;;;1.53;85.24;95539.16;1039588;28;19937;-66
2021/04/05 00:44:37;;;;;;;;;;;;;;;1.52;85.26;95538.38;1031901;28;19917;-66
2021/04/05 00:45:08;;;;;;;;;;;;;;;1.49;85.56;95538.78;1035466;28;19914;-67
2021/04/05 00:45:38;;;;;;;;;;;;;;;1.48;85.54;95537.19;1034486;28;19913;-67
2021/04/05 00:46:08;;;;;;;;;;;;;;;1.46;85.47;95539.19;1032093;28;20308;-66
2021/04/05 00:46:39;;;;;;;;;;;;;;;1.44;85.79;95541.19;1035592;28;19914;-65
2021/04/05 00:47:09;;;;;;;;;;;;;;;1.45;85.84;95535.03;1031497;28;19944;-66
2021/04/05 00:47:43;;;;;;;;;;;;;;;1.44;86.22;95537.81;1035814;28;19929;-66
2021/04/05 00:48:14;;;;;;;;;;;;;;;1.43;85.91;95534.44;1039169;28;19909;-66
2021/04/05 00:48:44;;;;;;;;;;;;;;;1.41;86.44;95533.88;1035225;28;20008;-67
2021/04/05 00:49:14;;;;;;;;;;;;;;;1.42;86.18;95535.44;1035490;28;19920;-67
2021/04/05 00:49:45;;;;;;;;;;;;;;;1.41;86.39;95537.25;1031770;28;19902;-66
2021/04/05 00:50:18;;;;;;;;;;;;;;;1.39;86.31;95534.06;1031699;28;20296;-65
2021/04/05 00:50:52;;;;;;;;;;;;;;;1.40;86.45;95532.28;1039389;28;19917;-67
2021/04/05 00:51:23;;;;;;;;;;;;;;;1.40;86.49;95529.69;1036943;28;20017;-66
2021/04/05 00:51:53;;;;;;;;;;;;;;;1.37;86.52;95530.88;1036692;28;19936;-65
2021/04/05 00:52:24;;;;;;;;;;;;;;;1.37;86.63;95530.09;1035987;28;19928;-65
2021/04/05 00:52:56;;;;;;;;;;;;;;;1.35;86.56;95524.38;1036082;28;19952;-66
2021/04/05 00:53:34;;;;;;;;;;;;;;;1.33;86.83;95523.78;1035758;28;19928;-67
2021/04/05 00:54:04;;;;;;;;;;;;;;;1.35;86.73;95527.75;1041937;28;19978;-66
2021/04/05 00:54:34;;;;;;;;;;;;;;;1.33;86.45;95524.56;1038382;28;20446;-65
2021/04/05 00:55:05;;;;;;;;;;;;;;;1.32;87.03;95519.63;1035649;28;19918;-66
2021/04/05 00:55:36;;;;;;;;;;;;;;;1.32;86.75;95523.00;1031887;28;20078;-66
2021/04/05 00:56:06;;;;;;;;;;;;;;;1.31;86.70;95520.63;1027769;28;19918;-66
2021/04/05 00:56:37;;;;;;;;;;;;;;;1.28;87.08;95526.22;1028049;28;20411;-67
2021/04/05 00:57:07;;;;;;;;;;;;;;;1.30;86.79;95526.78;1031667;28;19910;-66
2021/04/05 00:57:37;;;;;;;;;;;;;;;1.30;86.88;95524.97;1030872;28;20757;-65
2021/04/05 00:58:08;;;;;;;;;;;;;;;1.28;86.91;95523.63;1032250;28;19918;-67
2021/04/05 00:58:38;;;;;;;;;;;;;;;1.27;86.83;95525.41;1030847;28;19913;-66
2021/04/05 00:59:08;;;;;;;;;;;;;;;1.28;87.11;95521.84;1033237;28;19925;-67
2021/04/05 00:59:38;;;;;;;;;;;;;;;1.28;87.41;95523.63;1035921;28;19920;-67
2021/04/05 01:00:13;;;;;;;;;;;;;;;1.25;87.47;95529.22;1039699;28;19971;-66
2021/04/05 01:00:58;;;;;;;;;;;;;;;1.28;87.07;95526.22;1034440;28;20394;-65
2021/04/05 01:01:29;;;;;;;;;;;;;;;1.29;87.01;95520.03;1030221;28;19914;-67
2021/04/05 01:01:59;;;;;;;;;;;;;;;1.27;87.25;95522.03;1031451;28;19925;-66
2021/04/05 01:02:33;;;;;;;;;;;;;;;1.30;87.50;95521.59;1033727;28;19918;-66
2021/04/05 01:03:03;;;;;;;;;;;;;;;1.28;87.35;95523.63;1040160;28;20453;-66
2021/04/05 01:03:35;;;;;;;;;;;;;;;1.26;87.77;95523.03;1037977;28;19947;-66
2021/04/05 01:04:05;;;;;;;;;;;;;;;1.22;87.84;95521.88;1035275;28;20366;-66
2021/04/05 01:04:36;;;;;;;;;;;;;;;1.21;87.46;95520.28;1030702;28;19972;-65
2021/04/05 01:05:06;;;;;;;;;;;;;;;1.20;87.68;95519.47;1028137;28;19917;-66
2021/04/05 01:05:37;;;;;;;;;;;;;;;1.23;87.79;95523.44;1031656;28;20005;-65
2021/04/05 01:06:07;;;;;;;;;;;;;;;1.18;87.92;95517.13;1030463;28;19972;-66
2021/04/05 01:06:38;;;;;;;;;;;;;;;1.17;87.95;95520.72;1036012;28;20560;-67
2021/04/05 01:07:09;;;;;;;;;;;;;;;1.18;87.57;95513.75;1031523;28;20047;-66
2021/04/05 01:07:39;;;;;;;;;;;;;;;1.17;87.78;95518.13;1031528;28;19913;-66
2021/04/05 01:08:14;;;;;;;;;;;;;;;1.17;87.91;95510.38;1039624;28;19919;-66
2021/04/05 01:08:44;;;;;;;;;;;;;;;1.17;87.88;95514.72;1040041;28;19917;-67
2021/04/05 01:09:14;;;;;;;;;;;;;;;1.15;88.29;95512.38;1036290;28;20327;-66
2021/04/05 01:09:45;;;;;;;;;;;;;;;1.14;88.07;95509.97;1030996;28;19917;-66
2021/04/05 01:10:15;;;;;;;;;;;;;;;1.13;87.88;95509.19;1027328;28;19922;-67
2021/04/05 01:10:46;;;;;;;;;;;;;;;1.15;88.10;95506.41;1031663;28;20524;-66
2021/04/05 01:11:17;;;;;;;;;;;;;;;1.16;88.06;95505.41;1031449;28;19917;-66
2021/04/05 01:11:47;;;;;;;;;;;;;;;1.17;88.11;95500.03;1035991;28;20021;-65
2021/04/05 01:12:17;;;;;;;;;;;;;;;1.18;88.13;95495.66;1035474;28;20384;-66
2021/04/05 01:12:48;;;;;;;;;;;;;;;1.16;87.96;95493.28;1035175;28;19917;-66
2021/04/05 01:13:18;;;;;;;;;;;;;;;1.16;87.89;95490.69;1031979;28;19913;-66
2021/04/05 01:13:49;;;;;;;;;;;;;;;1.18;88.07;95491.28;1027427;28;19914;-65
2021/04/05 01:14:19;;;;;;;;;;;;;;;1.15;87.67;95481.38;1031229;28;19945;-66
2021/04/05 01:14:49;;;;;;;;;;;;;;;1.12;88.09;95486.94;1031810;28;19914;-66
2021/04/05 01:15:20;;;;;;;;;;;;;;;1.13;88.09;95478.19;1031619;28;20330;-66
2021/04/05 01:15:50;;;;;;;;;;;;;;;1.12;88.23;95484.38;1039939;28;19943;-66
2021/04/05 01:16:21;;;;;;;;;;;;;;;1.13;88.21;95478.19;1031103;28;19909;-66
2021/04/05 01:16:52;;;;;;;;;;;;;;;1.14;88.27;95482.38;1036819;28;19917;-66
2021/04/05 01:17:22;;;;;;;;;;;;;;;1.11;88.41;95475.03;1039992;28;19916;-67
2021/04/05 01:17:52;;;;;;;;;;;;;;;1.10;88.22;95472.66;1039637;28;19983;-65
2021/04/05 01:18:23;;;;;;;;;;;;;;;0.93;88.09;95436.19;1042777;28;19917;-66
2021/04/05 01:18:54;;;;;;;;;;;;;;;1.13;88.27;95474.81;1039651;28;19944;-67
2021/04/05 01:19:24;;;;;;;;;;;;;;;1.12;88.04;95479.19;1035339;28;19932;-67
2021/04/05 01:19:54;;;;;;;;;;;;;;;1.12;88.35;95476.63;1035796;28;20367;-66
2021/04/05 01:20:25;;;;;;;;;;;;;;;1.12;88.11;95481.00;1035019;28;19914;-67
2021/04/05 01:20:56;;;;;;;;;;;;;;;1.11;88.22;95475.03;1039461;28;20275;-67
2021/04/05 01:21:26;;;;;;;;;;;;;;;1.09;88.19;95478.81;1043969;28;20536;-67
2021/04/05 01:21:56;;;;;;;;;;;;;;;1.07;88.20;95478.22;1038044;28;20011;-67
2021/04/05 01:22:27;;;;;;;;;;;;;;;1.07;88.17;95475.66;1035516;28;19917;-66
2021/04/05 01:22:57;;;;;;;;;;;;;;;1.05;88.41;95475.09;1033051;28;19999;-66
2021/04/05 01:23:28;;;;;;;;;;;;;;;1.06;88.71;95474.84;1035493;28;19913;-67
2021/04/05 01:23:58;;;;;;;;;;;;;;;1.10;88.22;95473.44;1035845;28;19920;-67
2021/04/05 01:24:28;;;;;;;;;;;;;;;0.90;88.30;95446.94;1035407;28;19913;-65
2021/04/05 01:24:59;;;;;;;;;;;;;;;1.10;88.06;95476.00;1035286;28;19917;-67
2021/04/05 01:25:29;;;;;;;;;;;;;;;1.11;88.24;95475.03;1031546;28;19947;-67
2021/04/05 01:25:59;;;;;;;;;;;;;;;1.13;88.32;95482.56;1027502;28;20296;-67
2021/04/05 01:26:33;;;;;;;;;;;;;;;1.12;88.02;95471.44;1027272;28;19953;-66
2021/04/05 01:27:03;;;;;;;;;;;;;;;1.14;87.58;95472.03;1035275;28;20531;-66
2021/04/05 01:27:34;;;;;;;;;;;;;;;1.21;87.57;95478.94;1035744;28;19913;-67
2021/04/05 01:28:04;;;;;;;;;;;;;;;1.17;87.53;95473.38;1036654;28;19992;-66
2021/04/05 01:28:35;;;;;;;;;;;;;;;1.16;87.56;95482.94;1033771;28;20299;-66
2021/04/05 01:29:05;;;;;;;;;;;;;;;1.18;87.64;95485.31;1035353;28;19952;-67
2021/04/05 01:29:36;;;;;;;;;;;;;;;1.20;87.43;95472.19;1035838;28;19967;-67
2021/04/05 01:30:08;;;;;;;;;;;;;;;1.22;87.41;95472.78;1035582;28;20343;-65
2021/04/05 01:30:42;;;;;;;;;;;;;;;1.18;87.93;95480.16;1039157;28;20008;-67
2021/04/05 01:31:12;;;;;;;;;;;;;;;1.17;87.46;95473.38;1035742;28;19932;-67
2021/04/05 01:31:42;;;;;;;;;;;;;;;1.21;87.31;95468.59;1040058;28;20490;-67
2021/04/05 01:32:13;;;;;;;;;;;;;;;1.21;87.19;95471.19;1039706;28;19905;-67
2021/04/05 01:32:43;;;;;;;;;;;;;;;1.18;87.07;95465.44;1035461;28;19909;-67
2021/04/05 01:33:15;;;;;;;;;;;;;;;1.20;87.20;95472.97;1039253;28;20416;-66
2021/04/05 01:33:45;;;;;;;;;;;;;;;1.19;87.02;95468.81;1031321;28;19914;-67
2021/04/05 01:34:15;;;;;;;;;;;;;;;1.21;87.17;95473.75;1031658;28;19909;-67
2021/04/05 01:34:46;;;;;;;;;;;;;;;1.21;87.28;95471.19;1035381;28;19913;-67
2021/04/05 01:35:16;;;;;;;;;;;;;;;1.18;87.23;95473.19;1027456;28;19910;-67
2021/04/05 01:35:46;;;;;;;;;;;;;;;1.18;86.96;95473.19;1031261;28;20367;-67
2021/04/05 01:36:17;;;;;;;;;;;;;;;1.20;87.44;95472.19;1035809;28;19909;-66
2021/04/05 01:36:47;;;;;;;;;;;;;;;1.16;87.14;95475.19;1035423;28;19948;-67
2021/04/05 01:37:17;;;;;;;;;;;;;;;1.16;87.73;95472.59;1038901;28;19920;-67
2021/04/05 01:37:47;;;;;;;;;;;;;;;1.17;87.70;95468.22;1035858;28;19909;-67
2021/04/05 01:38:38;;;;;;;;;;;;;;;1.22;87.61;95472.78;1030750;28;20372;-67
2021/04/05 01:39:08;;;;;;;;;;;;;;;1.27;87.12;95467.75;1030493;28;19999;-65
2021/04/05 01:39:38;;;;;;;;;;;;;;;1.28;86.67;95469.34;1031369;28;20376;-66
2021/04/05 01:40:10;;;;;;;;;;;;;;;1.22;86.79;95470.97;1034140;28;19909;-66
2021/04/05 01:40:42;;;;;;;;;;;;;;;1.26;86.70;95466.19;1027313;28;19910;-66
2021/04/05 01:41:16;;;;;;;;;;;;;;;1.23;87.08;95462.22;1023524;28;19921;-68
2021/04/05 01:41:46;;;;;;;;;;;;;;;1.31;86.92;95463.78;1031634;28;19909;-67
2021/04/05 01:42:17;;;;;;;;;;;;;;;1.27;86.70;95465.16;1030828;28;19953;-67
2021/04/05 01:42:47;;;;;;;;;;;;;;;1.27;86.92;95458.19;1030763;28;19945;-67
2021/04/05 01:43:17;;;;;;;;;;;;;;;1.24;86.71;95460.41;1028332;28;20318;-67
2021/04/05 01:43:48;;;;;;;;;;;;;;;1.27;86.62;95452.25;1031198;28;19910;-67
2021/04/05 01:44:18;;;;;;;;;;;;;;;1.22;86.48;95455.47;1043657;28;20516;-67
2021/04/05 01:44:48;;;;;;;;;;;;;;;1.21;86.88;95451.31;1039855;28;20579;-67
2021/04/05 01:45:18;;;;;;;;;;;;;;;1.20;87.27;95452.28;1037523;28;19945;-66
2021/04/05 01:45:49;;;;;;;;;;;;;;;1.20;86.96;95449.72;1039711;28;19913;-66
2021/04/05 01:46:19;;;;;;;;;;;;;;;1.15;86.89;95452.94;1039418;28;19909;-67
2021/04/05 01:46:50;;;;;;;;;;;;;;;1.19;87.40;95450.72;1031653;28;19979;-67
2021/04/05 01:47:20;;;;;;;;;;;;;;;1.17;87.63;95453.53;1035516;28;19936;-67
2021/04/05 01:47:50;;;;;;;;;;;;;;;1.13;87.62;95449.75;1035099;28;19945;-67
2021/04/05 01:48:21;;;;;;;;;;;;;;;1.12;87.81;95450.78;1034942;28;20519;-67
2021/04/05 01:48:51;;;;;;;;;;;;;;;1.17;87.32;95448.38;1035132;28;19905;-67
2021/04/05 01:49:22;;;;;;;;;;;;;;;1.16;87.11;95449.34;1035309;28;19909;-66
2021/04/05 01:49:52;;;;;;;;;;;;;;;1.15;87.43;95449.56;1031001;28;20027;-67
2021/04/05 01:50:22;;;;;;;;;;;;;;;1.15;87.42;95442.59;1027325;28;19914;-67
2021/04/05 01:50:56;;;;;;;;;;;;;;;1.15;87.21;95447.00;1027363;28;19984;-66
2021/04/05 01:51:26;;;;;;;;;;;;;;;1.20;86.86;95443.75;1027571;28;19918;-67
2021/04/05 01:51:57;;;;;;;;;;;;;;;1.18;86.66;95443.97;1030305;28;20376;-67
2021/04/05 01:52:27;;;;;;;;;;;;;;;1.20;86.83;95436.00;1028350;28;19945;-67
2021/04/05 01:53:02;;;;;;;;;;;;;;;1.16;87.03;95440.81;1035734;28;19932;-67
2021/04/05 01:53:33;;;;;;;;;;;;;;;1.14;87.32;95437.63;1034567;28;20024;-66
2021/04/05 01:54:03;;;;;;;;;;;;;;;1.13;87.40;95439.44;1032919;28;19909;-67
2021/04/05 01:54:34;;;;;;;;;;;;;;;1.15;87.27;95432.28;1035411;28;20611;-68
2021/04/05 01:55:04;;;;;;;;;;;;;;;1.17;87.33;95432.03;1035327;28;20012;-67
2021/04/05 01:55:35;;;;;;;;;;;;;;;1.13;87.12;95433.47;1031555;28;20013;-67
2021/04/05 01:56:06;;;;;;;;;;;;;;;1.09;87.81;95433.09;1031522;28;19976;-67
2021/04/05 01:56:36;;;;;;;;;;;;;;;1.12;87.60;95430.09;1031079;28;19992;-67
2021/04/05 01:57:09;;;;;;;;;;;;;;;1.09;87.58;95429.72;1027734;28;19924;-68
2021/04/05 01:57:40;;;;;;;;;;;;;;;1.08;87.80;95434.13;1029529;28;19928;-67
2021/04/05 01:58:10;;;;;;;;;;;;;;;1.07;87.74;95429.94;1034887;28;19969;-65
2021/04/05 01:58:41;;;;;;;;;;;;;;;1.04;87.61;95435.53;1038095;28;19919;-66
2021/04/05 01:59:12;;;;;;;;;;;;;;;1.06;87.74;95430.94;1034349;28;19913;-67
2021/04/05 01:59:42;;;;;;;;;;;;;;;1.05;87.83;95426.78;1035780;28;20669;-67
2021/04/05 02:00:14;;;;;;;;;;;;;;;1.04;88.26;95438.13;1031022;28;19910;-67
2021/04/05 02:00:44;;;;;;;;;;;;;;;1.03;88.16;95430.56;1026732;28;19914;-67
2021/04/05 02:01:15;;;;;;;;;;;;;;;1.05;87.91;95428.56;1023433;29;20314;-67
2021/04/05 02:01:46;;;;;;;;;;;;;;;1.03;88.09;95426.19;1023568;28;19911;-67
2021/04/05 02:02:16;;;;;;;;;;;;;;;1.01;88.09;95425.63;1027309;28;20443;-67
2021/04/05 02:02:46;;;;;;;;;;;;;;;1.00;88.34;95428.41;1031296;28;19914;-67
2021/04/05 02:03:17;;;;;;;;;;;;;;;0.99;88.23;95419.09;1030971;28;19922;-67
2021/04/05 02:03:47;;;;;;;;;;;;;;;0.98;88.36;95417.50;1031693;28;19953;-67
2021/04/05 02:04:17;;;;;;;;;;;;;;;0.99;88.20;95419.88;1035131;28;20680;-66
2021/04/05 02:04:47;;;;;;;;;;;;;;;1.02;88.35;95419.44;1027230;28;19914;-67
2021/04/05 02:05:18;;;;;;;;;;;;;;;1.00;88.36;95426.59;1035460;28;19947;-67
2021/04/05 02:05:55;;;;;;;;;;;;;;;1.01;88.19;95423.03;1030921;28;19952;-67
2021/04/05 02:06:26;;;;;;;;;;;;;;;0.99;88.23;95417.28;1032388;28;19917;-67
2021/04/05 02:06:56;;;;;;;;;;;;;;;0.97;88.55;95416.69;1031227;28;19920;-67
2021/04/05 02:07:27;;;;;;;;;;;;;;;0.98;88.31;95418.28;1035610;28;19988;-68
2021/04/05 02:07:57;;;;;;;;;;;;;;;0.97;88.66;95421.06;1039820;28;20339;-66
2021/04/05 02:08:28;;;;;;;;;;;;;;;0.94;88.56;95422.31;1038595;28;19912;-67
2021/04/05 02:08:58;;;;;;;;;;;;;;;0.93;89.06;95425.88;1043155;28;20307;-67
2021/04/05 02:09:28;;;;;;;;;;;;;;;0.90;88.89;95410.78;1039440;28;19916;-67
2021/04/05 02:09:59;;;;;;;;;;;;;;;0.92;88.85;95419.13;1043473;28;20385;-67
2021/04/05 02:10:29;;;;;;;;;;;;;;;0.88;89.08;95418.75;1043097;28;20362;-67
2021/04/05 02:11:00;;;;;;;;;;;;;;;0.88;89.10;95412.81;1036747;28;19905;-67
2021/04/05 02:11:36;;;;;;;;;;;;;;;0.88;89.40;95413.59;1031017;28;19913;-67
2021/04/05 02:12:07;;;;;;;;;;;;;;;0.85;89.46;95413.22;1032301;28;20316;-67
2021/04/05 02:12:37;;;;;;;;;;;;;;;0.84;89.15;95407.28;1037111;28;19951;-67
2021/04/05 02:13:07;;;;;;;;;;;;;;;0.84;89.62;95409.03;1040217;28;20569;-66
2021/04/05 02:13:38;;;;;;;;;;;;;;;0.83;89.89;95410.03;1043172;28;19904;-67
2021/04/05 02:14:08;;;;;;;;;;;;;;;0.83;89.56;95410.03;1035132;28;20312;-67
2021/04/05 02:14:39;;;;;;;;;;;;;;;0.79;89.64;95414.06;1035147;28;19921;-67
2021/04/05 02:15:10;;;;;;;;;;;;;;;0.81;90.00;95412.84;1035303;28;19908;-67
2021/04/05 02:15:40;;;;;;;;;;;;;;;0.82;89.60;95408.47;1031514;28;20569;-68
2021/04/05 02:16:14;;;;;;;;;;;;;;;0.82;89.60;95408.47;1043349;28;20005;-67
2021/04/05 02:16:44;;;;;;;;;;;;;;;0.91;89.35;95408.00;1038589;28;19905;-68
2021/04/05 02:17:14;;;;;;;;;;;;;;;0.89;89.13;95406.63;1035447;28;19959;-67
2021/04/05 02:17:45;;;;;;;;;;;;;;;0.87;89.32;95409.44;1038209;28;19909;-66
2021/04/05 02:18:16;;;;;;;;;;;;;;;0.84;88.91;95407.28;1031377;28;19927;-66
2021/04/05 02:18:46;;;;;;;;;;;;;;;0.84;89.30;95403.88;1035461;28;19991;-68
2021/04/05 02:19:16;;;;;;;;;;;;;;;0.60;89.58;95369.28;1043301;28;19909;-68
2021/04/05 02:19:47;;;;;;;;;;;;;;;0.81;89.67;95406.91;1039316;28;19909;-67
2021/04/05 02:20:17;;;;;;;;;;;;;;;0.84;89.40;95401.28;1039368;28;19905;-67
2021/04/05 02:20:47;;;;;;;;;;;;;;;0.88;89.60;95407.63;1031019;28;19992;-68
2021/04/05 02:21:18;;;;;;;;;;;;;;;0.96;88.76;95409.16;1027360;28;20640;-67
2021/04/05 02:21:49;;;;;;;;;;;;;;;0.93;88.65;95407.78;1035033;28;20309;-67
2021/04/05 02:22:19;;;;;;;;;;;;;;;0.96;88.76;95407.38;1035597;28;19906;-66
2021/04/05 02:22:50;;;;;;;;;;;;;;;1.08;88.06;95410.88;1039803;28;19912;-67
2021/04/05 02:23:21;;;;;;;;;;;;;;;1.14;87.36;95410.03;1039236;28;19905;-67
2021/04/05 02:23:51;;;;;;;;;;;;;;;1.08;87.26;95410.06;1027885;28;19906;-67
2021/04/05 02:24:22;;;;;;;;;;;;;;;1.06;87.38;95410.28;1037705;28;19912;-67
2021/04/05 02:24:52;;;;;;;;;;;;;;;1.05;86.91;95411.28;1035164;28;19912;-68
2021/04/05 02:25:25;;;;;;;;;;;;;;;1.04;87.23;95412.28;1036787;28;20662;-68
2021/04/05 02:26:07;;;;;;;;;;;;;;;1.08;87.11;95410.06;1034866;28;19905;-66
2021/04/05 02:26:38;;;;;;;;;;;;;;;1.09;87.25;95407.28;1033258;28;19952;-66
2021/04/05 02:27:08;;;;;;;;;;;;;;;1.09;87.31;95409.84;1033081;28;19910;-67
2021/04/05 02:27:40;;;;;;;;;;;;;;;1.11;87.33;95412.25;1032047;28;19908;-68
2021/04/05 02:28:10;;;;;;;;;;;;;;;1.09;87.01;95409.06;1031468;28;19906;-64
2021/04/05 02:28:41;;;;;;;;;;;;;;;1.13;86.66;95412.81;1025983;28;19906;-66
2021/04/05 02:29:11;;;;;;;;;;;;;;;1.08;87.09;95407.50;1027576;28;19913;-68
2021/04/05 02:29:42;;;;;;;;;;;;;;;1.08;87.13;95408.28;1031627;28;19902;-68
2021/04/05 02:30:24;;;;;;;;;;;;;;;1.12;87.03;95408.66;1031145;28;19909;-68
2021/04/05 02:30:55;;;;;;;;;;;;;;;1.07;87.08;95404.09;1033382;28;19918;-67
2021/04/05 02:31:25;;;;;;;;;;;;;;;1.03;87.27;95400.34;1036625;28;20391;-66
2021/04/05 02:31:56;;;;;;;;;;;;;;;1.00;87.10;95400.78;1039279;28;20492;-67
2021/04/05 02:32:26;;;;;;;;;;;;;;;0.98;87.58;95402.00;1031015;28;19913;-67
2021/04/05 02:33:00;;;;;;;;;;;;;;;0.96;87.87;95407.38;1031098;28;19924;-67
2021/04/05 02:33:30;;;;;;;;;;;;;;;0.94;87.77;95397.25;1035015;28;19924;-67
2021/04/05 02:34:01;;;;;;;;;;;;;;;0.97;87.31;95393.44;1035530;28;20461;-67
2021/04/05 02:34:31;;;;;;;;;;;;;;;0.98;87.53;95397.63;1035126;28;19913;-67
2021/04/05 02:35:01;;;;;;;;;;;;;;;0.98;87.67;95395.03;1031523;28;19913;-65
2021/04/05 02:35:32;;;;;;;;;;;;;;;0.97;87.85;95396.03;1030667;28;19913;-67
2021/04/05 02:36:03;;;;;;;;;;;;;;;0.99;87.47;95401.78;1034306;28;20007;-67
2021/04/05 02:36:33;;;;;;;;;;;;;;;0.99;87.27;95394.03;1031659;28;20028;-67
2021/04/05 02:37:04;;;;;;;;;;;;;;;0.97;87.45;95393.44;1027223;28;19949;-67
2021/04/05 02:37:34;;;;;;;;;;;;;;;1.03;87.15;95390.03;1026635;28;19918;-67
2021/04/05 02:38:04;;;;;;;;;;;;;;;1.00;87.04;95393.03;1027499;28;19898;-67
2021/04/05 02:38:38;;;;;;;;;;;;;;;1.03;87.10;95394.41;1022461;29;19922;-67
2021/04/05 02:39:09;;;;;;;;;;;;;;;1.02;86.94;95387.66;1027779;28;19945;-67
2021/04/05 02:39:39;;;;;;;;;;;;;;;1.00;87.40;95390.44;1032556;28;20684;-68
2021/04/05 02:40:11;;;;;;;;;;;;;;;0.97;87.41;95384.91;1039053;28;19913;-67
2021/04/05 02:40:42;;;;;;;;;;;;;;;0.94;87.35;95383.56;1033740;28;20478;-67
2021/04/05 02:41:12;;;;;;;;;;;;;;;0.93;87.53;95384.53;1031436;28;19917;-67
2021/04/05 02:41:43;;;;;;;;;;;;;;;0.90;87.62;95382.38;1023203;28;19936;-67
2021/04/05 02:42:13;;;;;;;;;;;;;;;0.90;88.06;95379.78;1031693;28;19941;-67
2021/04/05 02:42:45;;;;;;;;;;;;;;;0.93;87.94;95372.41;1035281;28;20168;-67
2021/04/05 02:43:15;;;;;;;;;;;;;;;0.97;87.43;95377.94;1038892;28;19913;-67